Time;durP1;ratioP1;P1;durP2;ratioP2;P2;SDS_P1;SDS_P2;PMS_P1;PMS_P2;Temp;Humidity;BMP_temperature;BMP_pressure;BME280_temperature;BME280_humidity;BME280_pressure;Samples;Min_cycle;Max_cycle;Signal;HPM_P1;HPM_P2
2021/05/23 00:01:42;;;;;;;1.30;1.20;;;15.00;66.70;;;;;;10413680;28;20701;-79
2021/05/23 00:06:43;;;;;;;1.50;1.40;;;15.00;65.90;;;;;;10413411;28;20281;-79
2021/05/23 00:11:45;;;;;;;1.57;1.47;;;14.90;66.20;;;;;;10416806;28;20591;-79
2021/05/23 00:16:48;;;;;;;1.30;1.20;;;14.90;66.00;;;;;;10421183;28;20471;-79
2021/05/23 00:21:50;;;;;;;1.80;1.37;;;14.80;67.10;;;;;;10424881;28;20214;-78
2021/05/23 00:26:51;;;;;;;1.60;1.50;;;14.80;66.20;;;;;;10420097;28;20689;-79
2021/05/23 00:31:54;;;;;;;1.47;1.37;;;14.80;66.60;;;;;;10420797;28;20226;-78
2021/05/23 00:36:56;;;;;;;1.50;1.33;;;14.80;66.10;;;;;;10421685;28;20317;-79
2021/05/23 00:41:57;;;;;;;4.50;1.50;;;14.80;66.40;;;;;;10422784;28;20218;-78
2021/05/23 00:47:00;;;;;;;1.23;1.13;;;14.80;66.40;;;;;;10421913;28;20221;-79
2021/05/23 00:52:01;;;;;;;1.50;1.40;;;14.90;66.20;;;;;;10396397;28;20232;-78
2021/05/23 00:57:03;;;;;;;2.10;1.20;;;14.90;66.20;;;;;;10420849;28;20218;-79
2021/05/23 01:02:40;;;;;;;2.67;1.67;;;14.80;66.40;;;;;;10415504;28;20234;-79
2021/05/23 01:07:42;;;;;;;1.23;1.17;;;14.80;66.70;;;;;;10419182;28;20738;-79
2021/05/23 01:13:32;;;;;;;1.47;1.37;;;14.80;67.50;;;;;;10420595;28;20226;-79
2021/05/23 01:18:49;;;;;;;1.50;1.40;;;14.80;67.50;;;;;;10396376;28;20796;-78
2021/05/23 01:23:54;;;;;;;1.73;1.50;;;14.80;68.40;;;;;;10436417;28;20197;-79
2021/05/23 01:29:00;;;;;;;2.27;1.87;;;14.80;68.30;;;;;;10419509;28;20659;-79
2021/05/23 01:34:04;;;;;;;1.27;1.27;;;14.80;69.00;;;;;;10420435;28;20245;-78
2021/05/23 01:39:08;;;;;;;1.13;1.07;;;14.80;69.60;;;;;;10418782;28;20356;-79
2021/05/23 01:44:11;;;;;;;1.30;1.20;;;14.70;69.70;;;;;;10435930;28;20205;-79
2021/05/23 01:49:13;;;;;;;1.77;1.57;;;14.70;70.20;;;;;;10416149;28;20237;-79
2021/05/23 01:54:15;;;;;;;2.30;1.23;;;14.70;70.20;;;;;;10422670;28;20309;-79
2021/05/23 01:59:17;;;;;;;2.10;1.40;;;14.60;70.50;;;;;;10402882;28;20245;-78
2021/05/23 02:04:19;;;;;;;2.20;1.63;;;14.50;71.20;;;;;;10419921;28;20576;-79
2021/05/23 02:09:21;;;;;;;1.10;1.10;;;14.50;71.30;;;;;;10420591;28;20356;-78
2021/05/23 02:14:23;;;;;;;1.83;1.30;;;14.50;71.90;;;;;;10419292;28;20305;-79
2021/05/23 02:19:25;;;;;;;1.20;1.20;;;14.50;71.30;;;;;;10418575;28;20227;-78
2021/05/23 02:24:27;;;;;;;1.73;1.20;;;14.50;72.30;;;;;;10420999;28;20666;-79
2021/05/23 02:29:33;;;;;;;1.93;1.37;;;14.50;73.40;;;;;;10415770;28;20239;-78
2021/05/23 02:34:44;;;;;;;1.50;1.40;;;14.50;76.30;;;;;;10415009;28;20221;-79
2021/05/23 02:39:45;;;;;;;1.00;1.00;;;14.50;80.50;;;;;;10415730;28;20214;-79
2021/05/23 02:44:48;;;;;;;0.93;0.93;;;14.30;81.90;;;;;;10415410;28;20324;-79
2021/05/23 02:49:49;;;;;;;1.10;1.00;;;13.90;85.50;;;;;;10412756;28;20221;-80
2021/05/23 02:54:51;;;;;;;2.00;1.50;;;13.50;88.10;;;;;;10413718;28;20218;-80
2021/05/23 02:59:54;;;;;;;1.50;1.40;;;13.20;90.80;;;;;;10414933;28;20487;-80
2021/05/23 03:04:55;;;;;;;1.10;1.10;;;13.00;92.60;;;;;;10415564;28;20699;-78
2021/05/23 03:09:57;;;;;;;1.30;1.20;;;12.90;94.10;;;;;;10413566;28;20217;-81
2021/05/23 03:15:00;;;;;;;1.33;1.23;;;12.70;93.90;;;;;;10413579;28;20600;-81
2021/05/23 03:20:01;;;;;;;1.40;1.30;;;12.50;93.50;;;;;;10416868;28;20457;-80
2021/05/23 03:25:04;;;;;;;1.47;1.37;;;12.30;93.90;;;;;;10411888;28;20590;-80
2021/05/23 03:30:09;;;;;;;1.47;1.10;;;12.20;93.90;;;;;;10412499;28;20237;-80
2021/05/23 03:35:12;;;;;;;1.00;1.00;;;12.10;94.40;;;;;;10411861;28;20317;-81
2021/05/23 03:40:16;;;;;;;2.60;1.20;;;12.10;95.00;;;;;;10398539;28;20248;-80
2021/05/23 03:45:22;;;;;;;1.10;1.10;;;12.10;94.80;;;;;;10428519;28;20206;-79
2021/05/23 03:50:24;;;;;;;0.90;0.90;;;12.10;94.90;;;;;;10412569;28;20275;-80
2021/05/23 03:55:27;;;;;;;0.80;0.80;;;12.20;94.40;;;;;;10414006;28;20801;-80
2021/05/23 04:00:30;;;;;;;0.83;0.83;;;12.20;94.10;;;;;;10414224;28;20225;-79
2021/05/23 04:05:32;;;;;;;0.90;0.90;;;12.30;94.30;;;;;;10412592;28;20201;-80
2021/05/23 04:10:36;;;;;;;1.67;1.07;;;12.30;94.40;;;;;;10414797;28;20218;-79
2021/05/23 04:15:39;;;;;;;0.80;0.80;;;12.40;94.60;;;;;;10415333;28;20309;-79
2021/05/23 04:20:41;;;;;;;1.67;1.00;;;12.50;93.50;;;;;;10418185;28;20694;-80
2021/05/23 04:25:42;;;;;;;1.00;0.90;;;12.50;93.50;;;;;;10412495;28;20205;-79
2021/05/23 04:30:45;;;;;;;1.67;1.03;;;12.60;93.30;;;;;;10397395;28;20249;-79
2021/05/23 04:35:46;;;;;;;0.87;0.87;;;12.60;93.20;;;;;;10413221;28;20249;-80
2021/05/23 04:40:48;;;;;;;1.10;0.80;;;12.70;94.10;;;;;;10414863;28;20233;-79
2021/05/23 04:45:50;;;;;;;1.20;0.90;;;12.70;94.30;;;;;;10403446;28;20236;-80
2021/05/23 04:50:52;;;;;;;0.80;0.80;;;12.90;94.10;;;;;;10395674;28;20257;-79
2021/05/23 04:55:54;;;;;;;0.90;0.90;;;13.00;94.20;;;;;;10411199;28;20669;-80
2021/05/23 05:00:56;;;;;;;1.53;1.43;;;13.10;93.90;;;;;;10412728;28;20689;-78
2021/05/23 05:05:58;;;;;;;1.87;1.30;;;13.20;93.20;;;;;;10420445;28;20225;-80
2021/05/23 05:10:59;;;;;;;1.23;1.13;;;13.20;93.50;;;;;;10401910;28;20268;-79
2021/05/23 05:16:02;;;;;;;1.73;1.10;;;13.40;93.10;;;;;;10412084;28;20221;-79
2021/05/23 05:21:04;;;;;;;1.20;1.10;;;13.50;93.40;;;;;;10412848;28;20218;-80
2021/05/23 05:26:06;;;;;;;2.07;1.87;;;13.50;93.00;;;;;;10421184;28;20288;-80
2021/05/23 05:31:09;;;;;;;2.80;1.13;;;13.60;93.50;;;;;;10418983;28;20300;-79
2021/05/23 05:36:10;;;;;;;1.03;1.00;;;13.70;93.10;;;;;;10419090;28;20651;-80
2021/05/23 05:41:12;;;;;;;1.10;1.00;;;13.80;93.20;;;;;;10420873;28;20351;-80
2021/05/23 05:46:15;;;;;;;1.00;0.90;;;13.90;92.20;;;;;;10421859;28;20673;-79
2021/05/23 05:51:16;;;;;;;0.87;0.87;;;13.90;92.20;;;;;;10426765;28;20225;-79
2021/05/23 05:56:18;;;;;;;1.23;1.13;;;13.90;93.20;;;;;;10425230;28;20230;-78
2021/05/23 06:01:20;;;;;;;1.73;1.63;;;14.00;92.80;;;;;;10400615;28;20257;-80
2021/05/23 06:06:23;;;;;;;1.30;1.20;;;14.10;93.20;;;;;;10416938;28;20229;-80
2021/05/23 06:11:24;;;;;;;1.10;1.00;;;14.20;92.80;;;;;;10416836;28;20245;-80
2021/05/23 06:16:27;;;;;;;2.03;1.10;;;14.20;92.50;;;;;;10417619;28;20585;-79
2021/05/23 06:21:28;;;;;;;2.73;1.10;;;14.20;92.80;;;;;;10421953;28;20267;-78
2021/05/23 06:26:30;;;;;;;1.33;1.23;;;14.30;92.30;;;;;;10416114;28;20231;-80
2021/05/23 06:31:32;;;;;;;1.20;1.20;;;14.40;92.30;;;;;;10416177;28;20221;-80
2021/05/23 06:36:36;;;;;;;3.30;1.40;;;14.40;92.30;;;;;;10414527;28;20232;-80
2021/05/23 06:41:38;;;;;;;1.20;1.10;;;14.60;91.50;;;;;;10415803;28;20248;-79
2021/05/23 06:46:40;;;;;;;1.00;1.00;;;14.80;90.90;;;;;;10414952;28;20225;-80
2021/05/23 06:51:42;;;;;;;1.30;1.20;;;15.00;90.50;;;;;;10416388;28;20240;-79
2021/05/23 06:56:44;;;;;;;1.30;0.93;;;15.10;89.60;;;;;;10414233;28;20231;-80
2021/05/23 07:01:46;;;;;;;1.33;1.07;;;15.10;88.60;;;;;;10414070;28;20268;-78
2021/05/23 07:06:48;;;;;;;1.20;1.20;;;15.10;90.00;;;;;;10413781;28;20225;-79
2021/05/23 07:11:50;;;;;;;1.20;1.20;;;15.30;87.10;;;;;;10398061;28;20217;-79
2021/05/23 07:16:52;;;;;;;1.30;1.20;;;15.50;88.60;;;;;;10413962;28;20230;-79
2021/05/23 07:21:54;;;;;;;1.40;1.30;;;15.70;87.70;;;;;;10414961;28;20218;-79
2021/05/23 07:26:56;;;;;;;0.90;0.90;;;15.70;87.90;;;;;;10414131;28;20198;-80
2021/05/23 07:31:58;;;;;;;2.03;1.10;;;15.90;84.40;;;;;;10416631;28;20300;-80
2021/05/23 07:37:00;;;;;;;1.63;1.53;;;16.20;85.10;;;;;;10412547;28;20296;-79
2021/05/23 07:42:02;;;;;;;1.27;1.17;;;16.20;85.50;;;;;;10413445;28;20316;-80
2021/05/23 07:47:04;;;;;;;1.83;1.30;;;16.10;84.50;;;;;;10413528;28;20569;-79
2021/05/23 07:52:06;;;;;;;2.80;2.60;;;16.00;86.30;;;;;;10395038;28;20607;-79
2021/05/23 07:57:10;;;;;;;4.30;4.13;;;15.30;90.10;;;;;;10414171;28;20217;-79
2021/05/23 08:02:12;;;;;;;3.97;3.87;;;14.40;92.40;;;;;;10413695;28;20285;-78
2021/05/23 08:07:14;;;;;;;3.90;3.77;;;13.70;93.80;;;;;;10413910;28;20685;-80
2021/05/23 08:12:18;;;;;;;3.77;3.60;;;13.10;95.90;;;;;;10414562;28;20241;-78
2021/05/23 08:17:20;;;;;;;3.50;3.30;;;12.70;98.00;;;;;;10415764;28;20247;-78
2021/05/23 08:22:22;;;;;;;3.80;3.57;;;12.60;99.90;;;;;;10416215;28;20221;-80
2021/05/23 08:27:23;;;;;;;2.97;2.77;;;13.10;99.90;;;;;;10413567;28;20233;-79
2021/05/23 08:32:26;;;;;;;3.30;3.10;;;14.10;99.90;;;;;;10413635;28;20671;-80
2021/05/23 08:37:28;;;;;;;2.43;2.33;;;15.10;99.90;;;;;;10417959;28;20218;-79
2021/05/23 08:42:31;;;;;;;2.47;2.37;;;16.10;99.90;;;;;;10426919;28;20244;-80
2021/05/23 08:47:40;;;;;;;2.53;2.43;;;17.00;96.10;;;;;;10423401;28;20202;-80
2021/05/23 08:52:41;;;;;;;2.33;2.10;;;17.70;95.50;;;;;;10423594;28;20721;-80
2021/05/23 08:57:43;;;;;;;2.13;1.93;;;17.90;92.90;;;;;;10422064;28;20217;-80
2021/05/23 09:02:54;;;;;;;1.50;1.40;;;18.00;91.70;;;;;;10424435;28;20278;-80
2021/05/23 09:07:55;;;;;;;1.50;1.40;;;18.10;91.00;;;;;;10424986;28;20644;-79
2021/05/23 09:12:57;;;;;;;1.20;1.10;;;18.20;89.70;;;;;;10409206;28;20252;-80
2021/05/23 09:18:08;;;;;;;1.67;1.57;;;18.10;91.10;;;;;;10413490;28;20222;-79
2021/05/23 09:23:13;;;;;;;1.50;1.40;;;18.00;90.20;;;;;;10399590;28;20198;-80
2021/05/23 09:28:15;;;;;;;2.40;1.20;;;17.60;91.20;;;;;;10404899;28;20211;-80
2021/05/23 09:33:20;;;;;;;1.57;1.40;;;17.10;90.40;;;;;;10407448;28;20220;-78
2021/05/23 09:38:21;;;;;;;1.40;1.30;;;16.60;91.30;;;;;;10407617;28;20244;-80
2021/05/23 09:43:23;;;;;;;2.97;1.70;;;16.30;91.90;;;;;;10404971;28;20285;-80
2021/05/23 09:48:27;;;;;;;5.70;1.27;;;16.10;92.00;;;;;;10395752;28;20220;-80
2021/05/23 09:53:31;;;;;;;1.50;1.07;;;15.90;90.60;;;;;;10417668;28;20229;-79
2021/05/23 09:58:36;;;;;;;2.00;0.97;;;15.60;90.60;;;;;;10418800;28;20233;-78
2021/05/23 10:03:41;;;;;;;2.93;2.10;;;15.30;91.60;;;;;;10387581;28;20206;-78
2021/05/23 10:08:42;;;;;;;2.43;1.33;;;15.40;92.60;;;;;;10418605;28;20706;-78
2021/05/23 10:13:44;;;;;;;1.50;1.33;;;16.70;89.50;;;;;;10410041;28;20246;-78
2021/05/23 10:18:49;;;;;;;1.60;1.50;;;19.40;86.50;;;;;;10407198;28;20224;-78
2021/05/23 10:23:54;;;;;;;1.70;1.30;;;19.80;82.20;;;;;;10410887;28;20272;-78
2021/05/23 10:28:58;;;;;;;1.83;1.50;;;19.20;82.70;;;;;;10428369;28;20678;-79
2021/05/23 10:34:01;;;;;;;1.90;1.37;;;18.50;80.00;;;;;;10409108;28;20206;-79
2021/05/23 10:39:07;;;;;;;2.57;1.80;;;18.00;79.70;;;;;;10404637;28;20218;-78
2021/05/23 10:44:11;;;;;;;1.80;1.23;;;17.90;81.40;;;;;;10409501;28;20623;-78
2021/05/23 10:49:13;;;;;;;1.33;1.30;;;17.60;79.60;;;;;;10404867;28;20585;-79
2021/05/23 10:54:16;;;;;;;1.63;1.53;;;17.60;76.20;;;;;;10418271;28;20264;-78
2021/05/23 10:59:28;;;;;;;2.60;1.40;;;17.80;71.50;;;;;;10414649;28;20263;-78
2021/05/23 11:04:39;;;;;;;1.30;1.30;;;17.80;73.50;;;;;;10417932;28;20201;-78
2021/05/23 11:09:42;;;;;;;2.40;1.67;;;17.80;77.70;;;;;;10417013;28;20214;-78
2021/05/23 11:14:53;;;;;;;1.57;1.47;;;17.90;75.10;;;;;;10409563;28;20214;-78
2021/05/23 11:19:56;;;;;;;1.63;1.53;;;17.70;73.40;;;;;;10415008;28;20928;-77
2021/05/23 11:24:58;;;;;;;2.07;1.30;;;17.50;72.20;;;;;;10417559;28;20197;-78
2021/05/23 11:29:59;;;;;;;1.53;1.40;;;17.40;75.10;;;;;;10417057;28;20736;-79
2021/05/23 11:35:02;;;;;;;1.10;1.10;;;17.60;76.20;;;;;;10424747;28;20577;-79
2021/05/23 11:40:09;;;;;;;1.50;1.10;;;17.80;73.20;;;;;;10428935;28;20214;-79
2021/05/23 11:45:22;;;;;;;1.57;1.10;;;18.10;74.80;;;;;;10404080;28;20294;-80
2021/05/23 11:50:27;;;;;;;1.07;1.07;;;18.30;69.10;;;;;;10401555;28;20252;-79
2021/05/23 11:55:31;;;;;;;1.00;0.90;;;18.50;68.40;;;;;;10405971;28;20568;-79
2021/05/23 12:00:33;;;;;;;1.07;1.07;;;18.60;68.10;;;;;;10415668;28;20225;-78
2021/05/23 12:05:43;;;;;;;0.93;0.90;;;18.80;66.30;;;;;;10410057;28;20201;-78
2021/05/23 12:10:45;;;;;;;1.40;1.20;;;18.60;64.10;;;;;;10415693;28;20241;-79
2021/05/23 12:15:56;;;;;;;1.37;1.10;;;18.20;66.80;;;;;;10427148;28;20871;-78
2021/05/23 12:20:59;;;;;;;1.33;1.17;;;17.80;65.70;;;;;;10443471;28;20596;-78
2021/05/23 12:26:05;;;;;;;1.40;1.20;;;17.60;72.60;;;;;;10421151;28;20662;-78
2021/05/23 12:31:07;;;;;;;1.70;1.10;;;17.70;68.50;;;;;;10418776;28;20248;-78
2021/05/23 12:36:12;;;;;;;1.57;1.10;;;17.70;64.50;;;;;;10401313;28;20703;-78
2021/05/23 12:41:13;;;;;;;1.73;1.30;;;17.70;68.90;;;;;;10427020;28;20252;-78
2021/05/23 12:46:15;;;;;;;1.47;1.37;;;17.80;65.30;;;;;;10416699;28;20662;-78
2021/05/23 12:51:20;;;;;;;1.03;0.90;;;17.90;66.90;;;;;;10420565;28;20228;-79
2021/05/23 12:56:24;;;;;;;1.67;1.00;;;18.00;66.10;;;;;;10420612;28;20310;-79
2021/05/23 13:01:27;;;;;;;1.20;1.10;;;18.10;65.90;;;;;;10410138;28;20217;-79
2021/05/23 13:06:46;;;;;;;1.23;1.13;;;18.30;65.00;;;;;;10396384;28;20228;-79
2021/05/23 13:11:49;;;;;;;1.90;0.80;;;18.20;63.70;;;;;;10420307;28;20236;-78
2021/05/23 13:16:54;;;;;;;1.10;1.03;;;18.10;60.00;;;;;;10417758;28;20222;-79
2021/05/23 13:21:59;;;;;;;1.27;0.90;;;18.00;59.20;;;;;;10420683;28;20255;-80
2021/05/23 13:27:03;;;;;;;1.20;1.10;;;18.10;60.20;;;;;;10412193;28;20228;-78
2021/05/23 13:32:06;;;;;;;1.77;1.17;;;18.10;60.40;;;;;;10412166;28;20253;-79
2021/05/23 13:37:08;;;;;;;1.27;0.93;;;18.30;62.20;;;;;;10396330;28;20245;-78
2021/05/23 13:42:10;;;;;;;1.57;1.00;;;18.40;64.80;;;;;;10406671;28;20291;-80
2021/05/23 13:47:14;;;;;;;1.37;1.00;;;18.20;64.00;;;;;;10419724;28;20200;-79
2021/05/23 13:52:17;;;;;;;1.00;0.93;;;18.00;65.40;;;;;;10393510;28;20228;-79
2021/05/23 13:57:19;;;;;;;1.17;1.07;;;17.80;65.60;;;;;;10410671;28;20222;-78
2021/05/23 14:02:21;;;;;;;1.20;1.10;;;17.70;66.50;;;;;;10416347;28;20724;-80
2021/05/23 14:07:23;;;;;;;2.70;1.00;;;17.90;60.30;;;;;;10417920;28;20222;-78
2021/05/23 14:12:25;;;;;;;1.20;1.10;;;18.10;57.90;;;;;;10419148;28;20575;-79
2021/05/23 14:17:27;;;;;;;1.33;1.17;;;18.30;58.40;;;;;;10415356;28;20229;-79
2021/05/23 14:22:29;;;;;;;1.10;1.00;;;18.40;57.50;;;;;;10416565;28;20770;-78
2021/05/23 14:27:31;;;;;;;1.80;1.10;;;18.30;60.10;;;;;;10415181;28;20275;-79
2021/05/23 14:32:36;;;;;;;1.80;1.20;;;18.10;58.60;;;;;;10408257;28;20218;-77
2021/05/23 14:37:39;;;;;;;3.23;1.20;;;18.10;58.50;;;;;;10414256;28;20775;-78
2021/05/23 14:42:41;;;;;;;1.00;1.00;;;18.10;59.10;;;;;;10415781;28;20343;-78
2021/05/23 14:47:43;;;;;;;1.60;0.90;;;18.00;60.30;;;;;;10457070;28;20221;-78
2021/05/23 14:52:46;;;;;;;1.37;1.20;;;17.90;61.60;;;;;;10414583;28;20229;-78
2021/05/23 14:57:48;;;;;;;1.70;1.10;;;17.80;60.90;;;;;;10400927;28;20373;-79
2021/05/23 15:02:51;;;;;;;1.20;1.20;;;17.80;63.60;;;;;;10400751;28;20233;-78
2021/05/23 15:07:53;;;;;;;1.23;1.00;;;18.00;63.90;;;;;;10397924;28;20197;-78
2021/05/23 15:12:55;;;;;;;1.40;1.20;;;18.20;61.50;;;;;;10372866;28;20202;-78
2021/05/23 15:17:57;;;;;;;3.60;1.20;;;18.30;58.80;;;;;;10410228;28;20254;-79
2021/05/23 15:23:03;;;;;;;2.33;2.13;;;18.40;58.40;;;;;;10404470;28;20251;-79
2021/05/23 15:33:25;;;;;;;1.10;1.00;;;18.50;58.40;;;;;;10429422;28;20277;-79
2021/05/23 15:38:27;;;;;;;1.27;0.90;;;18.50;59.30;;;;;;10409702;28;20725;-80
2021/05/23 15:43:29;;;;;;;2.37;1.40;;;18.40;58.90;;;;;;10419228;28;20232;-80
2021/05/23 15:48:30;;;;;;;1.10;1.00;;;18.20;58.60;;;;;;10408613;28;20777;-79
2021/05/23 15:53:33;;;;;;;1.40;1.20;;;18.10;58.50;;;;;;10410666;28;20310;-78
2021/05/23 15:58:37;;;;;;;1.07;0.90;;;18.10;58.70;;;;;;10435078;23;20225;-79
2021/05/23 16:03:40;;;;;;;2.10;1.00;;;18.10;59.50;;;;;;10435018;28;20313;-79
2021/05/23 16:08:43;;;;;;;1.00;1.00;;;18.10;61.00;;;;;;10457815;28;20265;-81
2021/05/23 16:13:46;;;;;;;1.37;1.13;;;18.00;57.90;;;;;;10457042;28;20254;-81
2021/05/23 16:18:48;;;;;;;1.93;1.10;;;17.90;61.00;;;;;;10439909;28;20247;-82
2021/05/23 16:23:51;;;;;;;1.27;1.17;;;17.90;60.00;;;;;;10437669;28;20618;-81
2021/05/23 16:28:52;;;;;;;1.30;1.20;;;18.00;59.90;;;;;;10452787;28;20312;-81
2021/05/23 16:33:54;;;;;;;1.40;1.30;;;18.10;60.00;;;;;;10455516;28;20220;-83
2021/05/23 16:38:58;;;;;;;1.13;1.03;;;18.10;59.90;;;;;;10437147;28;20591;-81
2021/05/23 16:44:00;;;;;;;1.73;1.23;;;18.00;59.50;;;;;;10454635;28;20197;-81
2021/05/23 16:49:01;;;;;;;2.77;1.30;;;17.80;58.10;;;;;;10447044;28;20475;-82
2021/05/23 16:54:05;;;;;;;2.37;1.13;;;17.60;58.60;;;;;;10456009;28;20937;-83
2021/05/23 16:59:06;;;;;;;1.50;1.40;;;17.40;61.60;;;;;;10460118;28;20229;-82
2021/05/23 17:04:08;;;;;;;1.93;1.70;;;17.40;63.40;;;;;;10464817;28;20337;-83
2021/05/23 17:09:11;;;;;;;2.67;1.77;;;17.30;64.10;;;;;;10462628;28;20217;-83
2021/05/23 17:14:13;;;;;;;1.43;1.10;;;17.30;60.70;;;;;;10460907;28;20297;-82
2021/05/23 17:19:14;;;;;;;1.73;1.43;;;17.30;65.30;;;;;;10463067;28;20235;-82
2021/05/23 17:24:16;;;;;;;2.50;1.43;;;17.20;67.30;;;;;;10463532;28;20197;-81
2021/05/23 17:29:18;;;;;;;1.27;1.17;;;17.20;62.90;;;;;;10463574;28;20225;-83
2021/05/23 17:34:20;;;;;;;2.27;1.10;;;17.10;68.10;;;;;;10462502;28;20229;-81
2021/05/23 17:39:23;;;;;;;2.43;1.43;;;17.00;61.80;;;;;;10458774;28;20252;-82
2021/05/23 17:44:24;;;;;;;2.57;1.10;;;17.00;60.00;;;;;;10458448;28;20205;-80
2021/05/23 17:49:26;;;;;;;1.20;1.10;;;16.90;63.70;;;;;;10459246;28;20220;-81
2021/05/23 17:54:28;;;;;;;1.30;1.23;;;16.90;60.70;;;;;;10459014;28;20224;-83
2021/05/23 17:59:30;;;;;;;1.60;1.50;;;16.80;64.00;;;;;;10460274;28;20229;-80
2021/05/23 18:04:32;;;;;;;1.63;1.27;;;16.70;64.30;;;;;;10457650;28;20672;-82
2021/05/23 18:09:34;;;;;;;1.30;1.10;;;16.70;65.50;;;;;;10462009;28;20273;-81
2021/05/23 18:14:36;;;;;;;1.13;1.03;;;16.60;69.30;;;;;;10459897;28;20564;-82
2021/05/23 18:19:38;;;;;;;1.50;1.40;;;16.60;65.00;;;;;;10462208;28;20225;-82
2021/05/23 18:24:41;;;;;;;1.50;1.40;;;16.50;60.70;;;;;;10460421;28;20197;-84
2021/05/23 18:29:43;;;;;;;2.53;1.10;;;16.50;67.30;;;;;;10461141;28;20537;-82
2021/05/23 18:34:44;;;;;;;1.03;0.90;;;16.40;67.80;;;;;;10462863;28;20704;-81
2021/05/23 18:39:49;;;;;;;1.53;1.43;;;16.40;70.20;;;;;;10455414;28;20275;-80
2021/05/23 18:44:51;;;;;;;1.73;1.60;;;16.30;66.50;;;;;;10453660;28;20242;-80
2021/05/23 18:49:56;;;;;;;3.87;2.50;;;16.30;67.10;;;;;;10454255;28;20229;-81
2021/05/23 18:54:58;;;;;;;3.13;2.60;;;16.20;67.40;;;;;;10455675;28;20213;-83
2021/05/23 19:00:00;;;;;;;3.20;2.37;;;16.00;67.90;;;;;;10455470;28;20229;-78
2021/05/23 19:05:05;;;;;;;6.10;5.03;;;15.80;68.80;;;;;;10468943;28;20205;-81
2021/05/23 19:10:10;;;;;;;3.17;2.87;;;15.50;70.30;;;;;;10451651;28;20308;-82
2021/05/23 19:15:14;;;;;;;2.47;2.30;;;15.30;71.20;;;;;;10434942;28;20224;-81
2021/05/23 19:20:18;;;;;;;4.60;2.17;;;15.10;71.70;;;;;;10443290;28;20225;-82
2021/05/23 19:25:20;;;;;;;2.90;2.00;;;15.00;71.30;;;;;;10450863;28;20205;-81
2021/05/23 19:30:26;;;;;;;1.73;1.63;;;14.80;70.90;;;;;;10452784;28;20225;-81
2021/05/23 19:35:30;;;;;;;2.30;2.20;;;14.70;72.30;;;;;;10450900;28;20680;-82
2021/05/23 19:40:33;;;;;;;2.23;2.03;;;14.60;72.50;;;;;;10434492;28;20314;-82
2021/05/23 19:45:35;;;;;;;2.23;1.30;;;14.60;71.30;;;;;;10453175;28;20247;-83
2021/05/23 19:50:36;;;;;;;2.03;1.87;;;14.50;72.10;;;;;;10454875;28;20296;-82
2021/05/23 19:55:39;;;;;;;1.47;1.30;;;14.50;72.70;;;;;;10454075;28;20630;-82
2021/05/23 20:00:43;;;;;;;1.63;1.50;;;14.40;72.60;;;;;;10464414;28;20589;-82
2021/05/23 20:05:44;;;;;;;5.40;1.87;;;14.40;73.20;;;;;;10460012;28;20197;-82
2021/05/23 20:10:47;;;;;;;3.03;2.00;;;14.30;73.40;;;;;;10459369;28;20221;-82
2021/05/23 20:15:49;;;;;;;2.20;2.00;;;14.20;74.10;;;;;;10459426;28;20229;-83
2021/05/23 20:20:52;;;;;;;2.63;2.30;;;14.10;74.30;;;;;;10464659;28;20676;-82
2021/05/23 20:25:55;;;;;;;2.33;1.90;;;14.10;74.20;;;;;;10456546;28;20224;-80
2021/05/23 20:30:57;;;;;;;2.50;1.63;;;14.00;74.10;;;;;;10460120;28;20224;-82
2021/05/23 20:35:58;;;;;;;3.00;2.70;;;13.90;75.50;;;;;;10455733;28;20223;-83
2021/05/23 20:41:01;;;;;;;5.03;2.00;;;13.90;75.80;;;;;;10451458;28;20341;-83
2021/05/23 20:46:03;;;;;;;2.30;1.83;;;13.90;75.90;;;;;;10461312;28;20280;-82
2021/05/23 20:51:05;;;;;;;2.87;2.40;;;13.90;75.20;;;;;;10458747;28;20227;-81
2021/05/23 20:56:07;;;;;;;3.53;3.23;;;13.80;75.90;;;;;;10461442;28;20279;-83
2021/05/23 21:01:09;;;;;;;10.77;9.87;;;13.80;76.60;;;;;;10459036;28;20264;-82
2021/05/23 21:06:11;;;;;;;2.80;2.17;;;13.70;77.20;;;;;;10459741;28;20233;-80
2021/05/23 21:11:13;;;;;;;1.40;1.30;;;13.60;76.70;;;;;;10461855;28;20228;-82
2021/05/23 21:16:15;;;;;;;3.37;1.77;;;13.50;77.00;;;;;;10463225;28;20236;-82
2021/05/23 21:21:17;;;;;;;1.57;1.47;;;13.50;77.30;;;;;;10464926;28;20243;-84
2021/05/23 21:26:22;;;;;;;2.20;1.83;;;13.40;76.90;;;;;;10449125;28;20201;-82
2021/05/23 21:31:24;;;;;;;1.53;1.40;;;13.30;76.90;;;;;;10450951;28;20221;-82
2021/05/23 21:36:25;;;;;;;2.50;1.93;;;13.20;78.00;;;;;;10464418;28;20209;-80
2021/05/23 21:41:28;;;;;;;1.93;1.70;;;13.20;78.50;;;;;;10464197;28;20688;-79
2021/05/23 21:46:30;;;;;;;1.43;1.33;;;13.20;78.90;;;;;;10459292;28;20206;-82
2021/05/23 21:51:32;;;;;;;1.50;1.40;;;13.10;79.00;;;;;;10459993;28;20323;-82
2021/05/23 21:56:34;;;;;;;3.30;1.90;;;13.10;80.10;;;;;;10464044;28;20221;-83
2021/05/23 22:01:36;;;;;;;1.57;1.40;;;13.10;78.80;;;;;;10504778;23;20235;-77
2021/05/23 22:06:38;;;;;;;1.50;1.30;;;13.10;78.90;;;;;;10497344;28;20212;-77
2021/05/23 22:11:40;;;;;;;2.47;1.60;;;13.10;80.00;;;;;;10444093;28;20218;-78
2021/05/23 22:16:43;;;;;;;3.33;1.50;;;13.10;80.10;;;;;;10430908;28;20401;-78
2021/05/23 22:21:44;;;;;;;2.30;1.97;;;13.00;80.20;;;;;;10453281;28;20275;-78
2021/05/23 22:26:48;;;;;;;1.87;1.70;;;13.00;80.40;;;;;;10452932;28;20267;-77
2021/05/23 22:31:50;;;;;;;2.20;2.00;;;13.00;80.40;;;;;;10450779;28;20224;-79
2021/05/23 22:36:51;;;;;;;2.80;1.83;;;12.90;80.70;;;;;;10448691;28;20223;-77
2021/05/23 22:41:55;;;;;;;2.23;2.00;;;12.90;81.10;;;;;;10454643;28;20704;-78
2021/05/23 22:46:57;;;;;;;1.97;1.87;;;12.90;81.00;;;;;;10455739;28;20194;-77
2021/05/23 22:51:59;;;;;;;2.57;2.37;;;12.80;82.40;;;;;;10427748;28;20223;-79
2021/05/23 22:57:04;;;;;;;2.90;1.90;;;12.80;82.60;;;;;;10453446;28;20275;-77
2021/05/23 23:02:06;;;;;;;3.60;2.70;;;12.80;83.10;;;;;;10452461;28;20232;-78
2021/05/23 23:07:07;;;;;;;2.70;2.33;;;12.80;83.30;;;;;;10450905;28;20208;-77
2021/05/23 23:12:10;;;;;;;3.13;2.80;;;12.80;83.50;;;;;;10453985;28;20221;-78
2021/05/23 23:17:12;;;;;;;2.97;2.60;;;12.80;83.40;;;;;;10454352;28;20616;-77
2021/05/23 23:22:13;;;;;;;3.70;2.40;;;12.90;82.60;;;;;;10454764;28;20592;-78
2021/05/23 23:27:16;;;;;;;2.47;2.27;;;12.90;82.90;;;;;;10454457;28;20291;-77
2021/05/23 23:32:18;;;;;;;3.70;2.73;;;12.90;82.80;;;;;;10454070;28;20304;-78
2021/05/23 23:37:19;;;;;;;2.57;2.37;;;12.90;83.90;;;;;;10453124;28;20221;-78
2021/05/23 23:42:22;;;;;;;4.57;2.40;;;12.90;83.70;;;;;;10452229;28;20232;-77
2021/05/23 23:47:23;;;;;;;3.57;2.80;;;12.90;84.00;;;;;;10452387;28;20247;-79
2021/05/23 23:52:27;;;;;;;2.90;2.70;;;12.90;82.80;;;;;;10453264;28;20245;-77
2021/05/23 23:57:29;;;;;;;3.63;2.80;;;12.90;84.20;;;;;;10452429;28;20228;-78
